Time;durP1;ratioP1;P1;durP2;ratioP2;P2;SDS_P1;SDS_P2;PMS_P1;PMS_P2;Temp;Humidity;BMP_temperature;BMP_pressure;BME280_temperature;BME280_humidity;BME280_pressure;Samples;Min_cycle;Max_cycle;Signal;HPM_P1;HPM_P2
2022/10/02 00:02:02;;;;;;;17.77;2.90;;;12.30;99.90;;;;;;6117238;23;20081;-86
2022/10/02 00:04:51;;;;;;;20.63;3.15;;;12.30;99.90;;;;;;6116619;23;20037;-83
2022/10/02 00:07:21;;;;;;;20.92;3.17;;;12.40;99.90;;;;;;6117937;23;20060;-86
2022/10/02 00:10:07;;;;;;;20.42;3.30;;;12.40;99.90;;;;;;6117179;23;20010;-85
2022/10/02 00:12:34;;;;;;;13.35;2.85;;;12.40;99.90;;;;;;6117942;23;20002;-86
2022/10/02 00:15:12;;;;;;;21.50;3.90;;;12.30;99.90;;;;;;6116592;23;20431;-85
2022/10/02 00:17:44;;;;;;;18.67;5.30;;;12.40;99.90;;;;;;6115477;23;20063;-86
2022/10/02 00:20:21;;;;;;;14.57;3.08;;;12.30;99.90;;;;;;6116758;23;19998;-85
2022/10/02 00:22:57;;;;;;;94.95;26.02;;;12.40;99.90;;;;;;6117815;23;20060;-84
2022/10/02 00:25:38;;;;;;;299.85;82.22;;;12.40;99.90;;;;;;6117111;23;20068;-85
2022/10/02 00:28:19;;;;;;;21.65;4.60;;;12.40;99.90;;;;;;6118311;23;20338;-86
2022/10/02 00:31:25;;;;;;;24.05;4.85;;;12.40;99.90;;;;;;6116953;23;20450;-83
2022/10/02 00:34:07;;;;;;;18.95;4.70;;;12.40;99.90;;;;;;6117670;23;20339;-87
2022/10/02 00:36:50;;;;;;;29.88;3.75;;;12.40;99.90;;;;;;6116882;23;20017;-85
2022/10/02 00:39:30;;;;;;;17.40;3.10;;;12.40;99.90;;;;;;6117682;23;20018;-84
2022/10/02 00:42:21;;;;;;;18.52;3.63;;;12.40;99.90;;;;;;6116331;23;20085;-84
2022/10/02 00:45:12;;;;;;;18.25;3.80;;;12.40;99.90;;;;;;6116255;23;20018;-87
2022/10/02 00:47:58;;;;;;;16.52;3.95;;;12.40;99.90;;;;;;6117045;23;20016;-89
2022/10/02 00:51:05;;;;;;;18.60;3.60;;;12.40;99.90;;;;;;6115972;23;20003;-85
2022/10/02 00:54:05;;;;;;;22.48;3.75;;;12.40;99.90;;;;;;6117388;23;20006;-85
2022/10/02 00:56:36;;;;;;;14.48;2.80;;;12.40;99.90;;;;;;6117676;23;20056;-85
2022/10/02 00:59:08;;;;;;;14.52;2.70;;;12.30;99.90;;;;;;6118341;23;20017;-85
2022/10/02 01:01:44;;;;;;;12.45;3.00;;;12.30;99.90;;;;;;6116953;23;20063;-83
2022/10/02 01:04:14;;;;;;;19.58;4.00;;;12.30;99.90;;;;;;6118419;23;20037;-86
2022/10/02 01:06:40;;;;;;;24.42;3.05;;;12.30;99.90;;;;;;6117274;23;20002;-85
2022/10/02 01:09:06;;;;;;;14.05;2.97;;;12.30;99.90;;;;;;6118404;23;20081;-83
2022/10/02 01:11:32;;;;;;;12.02;3.40;;;12.20;99.90;;;;;;6116555;23;20038;-84
2022/10/02 01:13:58;;;;;;;17.58;3.42;;;12.20;99.90;;;;;;6118768;23;20047;-86
2022/10/02 01:16:24;;;;;;;21.20;2.88;;;12.20;99.90;;;;;;6117801;23;20006;-87
2022/10/02 01:18:50;;;;;;;25.67;3.80;;;12.20;99.90;;;;;;6118466;22;20021;-87
2022/10/02 01:21:44;;;;;;;13.27;2.88;;;12.20;99.90;;;;;;6116045;23;20423;-88
2022/10/02 01:24:30;;;;;;;12.00;3.90;;;12.20;99.90;;;;;;6109849;23;20014;-84
2022/10/02 01:26:57;;;;;;;13.20;2.50;;;12.10;99.90;;;;;;6118031;23;20014;-86
2022/10/02 01:29:23;;;;;;;14.25;2.80;;;12.10;99.90;;;;;;6117519;23;20439;-87
2022/10/02 01:31:48;;;;;;;14.10;2.90;;;12.10;99.90;;;;;;6113669;23;20006;-86
2022/10/02 01:34:14;;;;;;;16.23;3.90;;;12.10;99.90;;;;;;6117275;23;20002;-87
2022/10/02 01:36:40;;;;;;;17.73;3.70;;;12.10;99.90;;;;;;6117505;23;19998;-85
2022/10/02 01:39:06;;;;;;;13.30;2.33;;;12.10;99.90;;;;;;6118967;23;20002;-86
2022/10/02 01:41:42;;;;;;;20.13;3.58;;;12.10;99.90;;;;;;6117513;23;20002;-87
2022/10/02 01:44:08;;;;;;;8.32;2.45;;;12.00;99.90;;;;;;6116915;23;20093;-85
2022/10/02 01:46:44;;;;;;;21.40;3.70;;;12.00;99.90;;;;;;6117142;23;20013;-86
2022/10/02 01:49:29;;;;;;;;;;;12.00;99.90;;;;;;6118438;23;20476;-84
2022/10/02 01:52:32;;;;;;;22.73;3.30;;;12.00;99.90;;;;;;6116241;23;20393;-87
2022/10/02 01:55:16;;;;;;;17.02;3.70;;;12.00;99.90;;;;;;6116352;23;19998;-87
2022/10/02 01:58:01;;;;;;;10.63;2.65;;;12.00;99.90;;;;;;6117596;23;20009;-89
2022/10/02 02:00:40;;;;;;;16.70;3.87;;;12.00;99.90;;;;;;6117535;23;20002;-85
2022/10/02 02:03:57;;;;;;;21.02;5.25;;;12.00;99.90;;;;;;6117925;23;20059;-85
2022/10/02 02:06:22;;;;;;;16.10;3.25;;;11.90;99.90;;;;;;6068467;23;20089;-85
2022/10/02 02:09:19;;;;;;;22.60;3.17;;;11.80;99.90;;;;;;6117841;23;20029;-88
2022/10/02 02:11:55;;;;;;;28.65;3.22;;;11.90;99.90;;;;;;6117567;23;20014;-87
2022/10/02 02:14:46;;;;;;;21.27;3.17;;;11.90;99.90;;;;;;6118725;23;20470;-85
2022/10/02 02:17:12;;;;;;;24.67;3.35;;;11.90;99.90;;;;;;6117783;23;20093;-86
2022/10/02 02:19:46;;;;;;;15.70;3.22;;;11.90;99.90;;;;;;6118253;22;20398;-87
2022/10/02 02:22:23;;;;;;;17.00;2.85;;;11.90;99.90;;;;;;6117815;23;20079;-85
2022/10/02 02:24:56;;;;;;;20.88;4.18;;;12.00;99.90;;;;;;6118552;23;20238;-83
2022/10/02 02:27:30;;;;;;;21.95;5.35;;;12.10;99.90;;;;;;6118514;23;19998;-84
2022/10/02 02:30:07;;;;;;;15.68;3.72;;;12.10;99.90;;;;;;6118576;23;20024;-86
2022/10/02 02:32:40;;;;;;;17.67;3.65;;;12.20;99.90;;;;;;6118735;23;20006;-88
2022/10/02 02:35:19;;;;;;;23.40;4.13;;;12.20;99.90;;;;;;6117857;23;20005;-90
2022/10/02 02:37:48;;;;;;;31.50;4.43;;;12.20;99.90;;;;;;6118174;23;20010;-88
2022/10/02 02:40:18;;;;;;;20.65;3.72;;;12.20;99.90;;;;;;6117661;23;20055;-85
2022/10/02 02:42:57;;;;;;;26.27;3.97;;;12.20;99.90;;;;;;6117850;23;20006;-86
2022/10/02 02:45:28;;;;;;;21.52;4.38;;;12.20;99.90;;;;;;6117186;23;20045;-86
2022/10/02 02:47:59;;;;;;;28.00;4.63;;;12.20;99.90;;;;;;6117346;23;20083;-86
2022/10/02 02:50:49;;;;;;;28.15;4.22;;;12.20;99.90;;;;;;6117079;23;20318;-85
2022/10/02 02:53:30;;;;;;;21.83;3.75;;;12.20;99.90;;;;;;6117081;23;20458;-86
2022/10/02 02:56:03;;;;;;;18.58;4.35;;;12.20;99.90;;;;;;6117326;23;20096;-88
2022/10/02 02:58:57;;;;;;;24.83;4.57;;;12.20;99.90;;;;;;6118263;23;20029;-84
2022/10/02 03:01:23;;;;;;;20.38;3.55;;;12.20;99.90;;;;;;6116951;23;20309;-84
2022/10/02 03:03:48;;;;;;;24.77;3.65;;;12.20;99.90;;;;;;6117249;23;20021;-86
2022/10/02 03:06:20;;;;;;;24.98;4.30;;;12.10;99.90;;;;;;6117108;23;20010;-86
2022/10/02 03:08:50;;;;;;;23.23;4.78;;;12.10;99.90;;;;;;6117696;23;19998;-87
2022/10/02 03:11:39;;;;;;;27.60;4.72;;;12.10;99.90;;;;;;6116730;23;20005;-87
2022/10/02 03:14:16;;;;;;;29.33;5.47;;;12.10;99.90;;;;;;6117691;23;20064;-86
2022/10/02 03:17:17;;;;;;;19.48;5.10;;;12.20;99.90;;;;;;6117203;23;20427;-84
2022/10/02 03:20:10;;;;;;;27.40;4.72;;;12.10;99.90;;;;;;6117920;23;20030;-88
2022/10/02 03:22:45;;;;;;;31.98;5.93;;;12.20;99.90;;;;;;6118777;23;20002;-87
2022/10/02 03:25:25;;;;;;;22.88;4.43;;;12.20;99.90;;;;;;6115980;23;20040;-84
2022/10/02 03:28:02;;;;;;;24.58;5.35;;;12.20;99.90;;;;;;6116475;23;20010;-91
2022/10/02 03:30:29;;;;;;;36.72;6.07;;;12.20;99.90;;;;;;6117150;23;20012;-89
2022/10/02 03:32:59;;;;;;;23.60;4.63;;;12.20;99.90;;;;;;6117073;23;20002;-87
2022/10/02 03:35:26;;;;;;;20.17;4.63;;;12.20;99.90;;;;;;6117799;23;20010;-87
2022/10/02 03:37:59;;;;;;;39.17;5.45;;;12.20;99.90;;;;;;6116467;23;20009;-87
2022/10/02 03:40:26;;;;;;;27.25;4.88;;;12.20;99.90;;;;;;6115324;23;20009;-88
2022/10/02 03:42:57;;;;;;;33.20;5.10;;;12.30;99.90;;;;;;6116742;23;20006;-86
2022/10/02 03:45:23;;;;;;;23.15;6.03;;;12.30;99.90;;;;;;6116163;23;20017;-86
2022/10/02 03:47:49;;;;;;;25.40;5.85;;;12.30;99.90;;;;;;6116729;23;20359;-82
2022/10/02 03:50:16;;;;;;;28.98;5.50;;;12.40;99.90;;;;;;6117235;23;20010;-84
2022/10/02 03:52:52;;;;;;;28.08;4.80;;;12.30;99.90;;;;;;6116242;23;20006;-87
2022/10/02 03:55:17;;;;;;;47.58;8.00;;;12.30;99.90;;;;;;6115611;23;20059;-87
2022/10/02 03:57:45;;;;;;;33.33;5.13;;;12.30;99.90;;;;;;6116383;23;20072;-87
2022/10/02 04:00:18;;;;;;;27.73;4.78;;;12.30;99.90;;;;;;6117070;23;20025;-85
2022/10/02 04:02:57;;;;;;;26.30;4.32;;;12.30;99.90;;;;;;6117053;23;19998;-84
2022/10/02 04:06:02;;;;;;;;;;;;;;;;;;;;;
2022/10/02 04:08:35;;;;;;;24.98;5.35;;;12.30;99.90;;;;;;6114545;23;20077;-86
2022/10/02 04:11:11;;;;;;;23.67;4.20;;;12.20;99.90;;;;;;6117145;23;20048;-87
2022/10/02 04:13:49;;;;;;;35.78;4.93;;;12.20;99.90;;;;;;6118389;23;20002;-86
2022/10/02 04:16:32;;;;;;;29.42;4.38;;;12.20;99.90;;;;;;6116892;23;20076;-87
2022/10/02 04:18:59;;;;;;;34.00;4.90;;;12.10;99.90;;;;;;6118524;22;20025;-86
2022/10/02 04:21:47;;;;;;;21.63;5.00;;;12.10;99.90;;;;;;6117188;23;20006;-87
2022/10/02 04:24:31;;;;;;;26.13;4.97;;;12.10;99.90;;;;;;6117415;23;20441;-84
2022/10/02 04:27:09;;;;;;;20.63;4.60;;;12.10;99.90;;;;;;6117547;23;19998;-86
2022/10/02 04:30:05;;;;;;;33.00;6.53;;;12.10;99.90;;;;;;6118781;23;20479;-86
2022/10/02 04:32:35;;;;;;;20.50;4.88;;;12.10;99.90;;;;;;6104456;23;20033;-87
2022/10/02 04:35:12;;;;;;;35.45;4.90;;;12.10;99.90;;;;;;6119162;23;20026;-85
2022/10/02 04:37:46;;;;;;;29.30;4.90;;;12.00;99.90;;;;;;6117543;23;20059;-85
2022/10/02 04:40:49;;;;;;;35.97;4.93;;;12.00;99.90;;;;;;6118016;23;20013;-85
2022/10/02 04:43:39;;;;;;;22.83;4.68;;;12.00;99.90;;;;;;6119397;23;20013;-87
2022/10/02 04:46:32;;;;;;;24.35;4.93;;;12.00;99.90;;;;;;6118173;23;20052;-85
2022/10/02 04:48:57;;;;;;;21.27;4.88;;;12.00;99.90;;;;;;6119748;23;20026;-85
2022/10/02 04:51:48;;;;;;;20.23;5.03;;;12.00;99.90;;;;;;6117658;23;20337;-88
2022/10/02 04:54:48;;;;;;;32.45;4.82;;;12.00;99.90;;;;;;6119206;23;20006;-86
2022/10/02 04:57:44;;;;;;;22.33;5.07;;;11.90;99.90;;;;;;6118808;23;20059;-84
2022/10/02 05:00:14;;;;;;;;;;;12.00;99.90;;;;;;6119564;23;20080;-87
2022/10/02 05:03:14;;;;;;;23.60;5.25;;;11.90;99.90;;;;;;6118531;23;20302;-86
2022/10/02 05:06:13;;;;;;;26.60;4.97;;;11.90;99.90;;;;;;6117630;23;20010;-86
2022/10/02 05:09:13;;;;;;;24.27;4.95;;;12.00;99.90;;;;;;6118253;23;20014;-90
2022/10/02 05:11:54;;;;;;;23.45;4.72;;;12.00;99.90;;;;;;6117120;23;20010;-86
2022/10/02 05:14:49;;;;;;;30.10;5.53;;;11.90;99.90;;;;;;6117882;23;20006;-89
2022/10/02 05:17:15;;;;;;;27.80;5.82;;;12.00;99.90;;;;;;6078549;23;20450;-85
2022/10/02 05:19:58;;;;;;;21.25;4.95;;;12.00;99.90;;;;;;6118661;22;20046;-85
2022/10/02 05:22:52;;;;;;;23.98;5.30;;;12.10;99.90;;;;;;6118611;23;20002;-88
2022/10/02 05:25:39;;;;;;;28.23;5.35;;;12.10;99.90;;;;;;6117568;23;20503;-86
2022/10/02 05:28:29;;;;;;;25.63;5.90;;;12.10;99.90;;;;;;6119198;23;20006;-86
2022/10/02 05:31:21;;;;;;;26.20;5.97;;;12.20;99.90;;;;;;6118328;23;20100;-86
2022/10/02 05:34:01;;;;;;;21.73;4.57;;;12.20;99.90;;;;;;6118627;23;20183;-89
2022/10/02 05:36:39;;;;;;;23.98;5.53;;;12.20;99.90;;;;;;6117865;23;20016;-85
2022/10/02 05:39:21;;;;;;;27.00;5.63;;;12.20;99.90;;;;;;6117531;23;20111;-85
2022/10/02 05:41:57;;;;;;;24.75;6.85;;;12.20;99.90;;;;;;6118428;23;20071;-88
2022/10/02 05:45:00;;;;;;;20.80;5.22;;;12.20;99.90;;;;;;6117932;23;20089;-84
2022/10/02 05:47:45;;;;;;;28.27;5.90;;;12.20;99.90;;;;;;6116512;23;20030;-87
2022/10/02 05:50:10;;;;;;;32.72;6.00;;;12.20;99.90;;;;;;6119021;23;20010;-86
2022/10/02 05:52:58;;;;;;;28.95;5.20;;;12.20;99.90;;;;;;6116747;23;20037;-87
2022/10/02 05:55:38;;;;;;;25.15;6.45;;;12.20;99.90;;;;;;6116592;23;20037;-85
2022/10/02 05:58:35;;;;;;;29.92;7.63;;;12.30;99.90;;;;;;6114830;23;20006;-90
2022/10/02 06:01:49;;;;;;;31.05;5.35;;;12.40;99.90;;;;;;6114873;23;20005;-87
2022/10/02 06:04:36;;;;;;;16.02;4.72;;;12.30;99.90;;;;;;6028234;23;20101;-89
2022/10/02 06:07:07;;;;;;;26.95;6.03;;;12.40;99.90;;;;;;6027515;23;20496;-84
2022/10/02 06:09:40;;;;;;;23.42;5.05;;;12.30;99.90;;;;;;6085870;23;20021;-90
2022/10/02 06:12:13;;;;;;;26.42;5.57;;;12.40;99.90;;;;;;6117900;23;20016;-87
2022/10/02 06:14:44;;;;;;;23.02;5.18;;;12.40;99.90;;;;;;6118856;23;20038;-87
2022/10/02 06:17:47;;;;;;;29.65;5.30;;;12.50;99.90;;;;;;6118451;23;20006;-84
2022/10/02 06:20:35;;;;;;;26.77;5.88;;;12.50;99.90;;;;;;6118549;22;20120;-87
2022/10/02 06:23:10;;;;;;;21.05;5.32;;;12.50;99.90;;;;;;6117428;23;20013;-86
2022/10/02 06:25:47;;;;;;;22.75;6.00;;;12.50;99.90;;;;;;6119065;23;20010;-83
2022/10/02 06:28:20;;;;;;;23.17;4.90;;;12.50;99.90;;;;;;6117465;23;20340;-86
2022/10/02 06:30:51;;;;;;;21.27;4.30;;;12.50;99.90;;;;;;6116984;23;20013;-86
2022/10/02 06:33:21;;;;;;;29.75;5.40;;;12.50;99.90;;;;;;6116144;23;20029;-87
2022/10/02 06:35:56;;;;;;;22.05;7.65;;;12.60;99.90;;;;;;6116458;23;20006;-88
2022/10/02 06:38:47;;;;;;;14.52;5.97;;;12.60;99.90;;;;;;6117660;23;20085;-87
2022/10/02 06:41:43;;;;;;;17.85;5.70;;;12.70;99.90;;;;;;6115777;23;20029;-86
2022/10/02 06:44:26;;;;;;;22.23;5.43;;;12.80;99.90;;;;;;6099553;23;20045;-86
2022/10/02 06:47:24;;;;;;;9.85;2.67;;;12.70;99.90;;;;;;6118000;23;20029;-84
2022/10/02 06:50:12;;;;;;;11.30;2.83;;;12.80;99.90;;;;;;6118936;23;20002;-87
2022/10/02 06:53:13;;;;;;;9.15;3.13;;;12.90;99.90;;;;;;6116250;23;20080;-85
2022/10/02 06:55:41;;;;;;;7.97;2.83;;;12.90;99.90;;;;;;6118464;23;20067;-85
2022/10/02 06:58:20;;;;;;;9.80;2.90;;;13.00;99.90;;;;;;6110196;23;19998;-89
2022/10/02 07:00:52;;;;;;;10.38;2.85;;;13.10;99.90;;;;;;6116430;23;20010;-87
2022/10/02 07:03:32;;;;;;;8.75;2.85;;;13.00;99.90;;;;;;6117293;23;20017;-87
2022/10/02 07:06:10;;;;;;;14.55;3.60;;;13.10;99.90;;;;;;6117730;23;19998;-88
2022/10/02 07:08:48;;;;;;;15.25;3.53;;;13.10;99.90;;;;;;6118724;23;20025;-86
2022/10/02 07:11:34;;;;;;;10.15;3.85;;;13.10;99.90;;;;;;6116713;23;20017;-88
2022/10/02 07:14:26;;;;;;;13.32;4.15;;;13.20;99.90;;;;;;6117476;23;20002;-87
2022/10/02 07:17:01;;;;;;;15.45;4.15;;;13.20;99.90;;;;;;6115305;23;20006;-87
2022/10/02 07:19:35;;;;;;;23.58;3.80;;;13.20;99.90;;;;;;6115741;23;20071;-86
2022/10/02 07:22:19;;;;;;;15.45;3.78;;;13.30;99.90;;;;;;6117414;23;20002;-88
2022/10/02 07:25:06;;;;;;;11.18;3.38;;;13.40;99.90;;;;;;6116635;23;20378;-85
2022/10/02 07:27:35;;;;;;;14.57;4.35;;;13.50;99.90;;;;;;6117225;23;20013;-87
2022/10/02 07:30:07;;;;;;;15.18;3.63;;;13.50;99.90;;;;;;6117453;23;20069;-85
2022/10/02 07:32:51;;;;;;;17.92;4.32;;;13.60;99.90;;;;;;6116623;23;20006;-86
2022/10/02 07:35:46;;;;;;;14.50;3.10;;;13.60;99.90;;;;;;6118594;23;19994;-88
2022/10/02 07:38:53;;;;;;;14.63;3.90;;;13.70;99.90;;;;;;6116943;23;20009;-88
2022/10/02 07:41:49;;;;;;;12.32;3.92;;;13.80;99.90;;;;;;6118033;23;20006;-86
2022/10/02 07:44:34;;;;;;;;;;;13.80;99.90;;;;;;6116454;23;20014;-89
2022/10/02 07:47:47;;;;;;;14.45;3.35;;;13.80;99.90;;;;;;6114742;23;19979;-88
2022/10/02 07:50:40;;;;;;;16.23;4.15;;;13.80;99.90;;;;;;6117158;23;20199;-92
2022/10/02 07:53:16;;;;;;;16.05;3.55;;;13.90;99.90;;;;;;6117735;23;20010;-89
2022/10/02 07:55:51;;;;;;;16.58;4.38;;;13.90;99.90;;;;;;6117538;23;20443;-89
2022/10/02 07:58:39;;;;;;;18.55;4.75;;;13.80;99.90;;;;;;6117880;23;20035;-89
2022/10/02 08:01:15;;;;;;;9.75;3.47;;;13.80;99.90;;;;;;6118262;23;20472;-88
2022/10/02 08:04:01;;;;;;;24.30;4.25;;;13.80;99.90;;;;;;6117605;23;20062;-86
2022/10/02 08:06:28;;;;;;;16.48;3.30;;;13.90;99.90;;;;;;6114865;23;20341;-84
2022/10/02 08:09:18;;;;;;;27.02;5.38;;;13.90;99.90;;;;;;6117250;23;20415;-86
2022/10/02 08:12:08;;;;;;;20.98;4.07;;;13.90;99.90;;;;;;6113978;23;20002;-88
2022/10/02 08:14:40;;;;;;;15.52;4.18;;;14.00;99.90;;;;;;6118439;23;20016;-88
2022/10/02 08:17:54;;;;;;;17.00;3.67;;;13.90;99.90;;;;;;6118909;23;20088;-87
2022/10/02 08:20:32;;;;;;;16.60;3.58;;;14.00;99.90;;;;;;6118237;23;20122;-86
2022/10/02 08:23:36;;;;;;;15.43;3.60;;;14.00;99.90;;;;;;6115402;23;20010;-88
2022/10/02 08:26:05;;;;;;;17.67;3.72;;;14.10;99.90;;;;;;6117179;23;20017;-88
2022/10/02 08:28:56;;;;;;;20.80;3.47;;;14.10;99.90;;;;;;6114847;23;19998;-87
2022/10/02 08:31:22;;;;;;;9.32;3.08;;;14.20;99.90;;;;;;6114655;23;20013;-84
2022/10/02 08:33:51;;;;;;;15.38;4.05;;;14.30;99.90;;;;;;6115578;23;20082;-89
2022/10/02 08:37:08;;;;;;;20.13;3.25;;;14.30;99.90;;;;;;6117381;23;20010;-90
2022/10/02 08:39:54;;;;;;;15.20;4.00;;;14.40;99.90;;;;;;6027333;23;20082;-85
2022/10/02 08:42:23;;;;;;;14.52;3.58;;;14.40;99.90;;;;;;6027383;23;20388;-88
2022/10/02 08:45:14;;;;;;;16.33;3.63;;;14.50;99.90;;;;;;6091645;23;20029;-87
2022/10/02 08:48:22;;;;;;;17.73;3.65;;;14.50;99.90;;;;;;6116882;23;20006;-87
2022/10/02 08:51:10;;;;;;;19.67;3.63;;;14.60;99.90;;;;;;6118385;23;20002;-85
2022/10/02 08:54:14;;;;;;;15.70;4.05;;;14.60;99.90;;;;;;6115941;23;20450;-87
2022/10/02 08:57:25;;;;;;;15.80;3.80;;;14.60;99.90;;;;;;6116918;23;20013;-85
2022/10/02 09:00:21;;;;;;;8.45;2.88;;;14.70;99.90;;;;;;6116723;23;20376;-88
2022/10/02 09:03:05;;;;;;;13.15;3.20;;;14.80;99.90;;;;;;6114683;23;20024;-89
2022/10/02 09:05:54;;;;;;;14.30;3.53;;;14.90;99.90;;;;;;6116286;23;20024;-85
2022/10/02 09:08:42;;;;;;;9.32;2.90;;;14.90;99.90;;;;;;6115362;23;20123;-83
2022/10/02 09:11:10;;;;;;;15.38;4.20;;;15.00;99.90;;;;;;6117074;23;20092;-86
2022/10/02 09:14:14;;;;;;;15.15;3.85;;;15.10;99.90;;;;;;6115903;23;20356;-86
2022/10/02 09:17:00;;;;;;;18.48;4.80;;;15.00;99.90;;;;;;6116946;23;20006;-85
2022/10/02 09:19:53;;;;;;;11.32;3.40;;;14.90;99.90;;;;;;6118212;22;20125;-86
2022/10/02 09:22:54;;;;;;;20.05;5.68;;;14.80;99.90;;;;;;6119210;23;20010;-87
2022/10/02 09:25:37;;;;;;;18.98;4.07;;;14.80;99.90;;;;;;6119318;23;20013;-86
2022/10/02 09:28:35;;;;;;;20.35;3.75;;;14.80;99.90;;;;;;6118963;23;20390;-85
2022/10/02 09:31:39;;;;;;;18.48;4.00;;;14.60;99.90;;;;;;6119661;23;20013;-90
2022/10/02 09:34:38;;;;;;;14.82;3.55;;;14.60;99.90;;;;;;6119595;23;20492;-85
2022/10/02 09:37:27;;;;;;;13.15;3.38;;;14.60;99.90;;;;;;6118988;23;20006;-85
2022/10/02 09:40:25;;;;;;;8.32;2.97;;;14.60;99.90;;;;;;6119753;23;20005;-84
2022/10/02 09:43:11;;;;;;;16.60;3.33;;;14.60;99.90;;;;;;6119099;23;20055;-86
2022/10/02 09:46:20;;;;;;;14.88;3.38;;;14.60;99.90;;;;;;6119009;23;20335;-83
2022/10/02 09:49:24;;;;;;;12.23;3.60;;;14.70;99.90;;;;;;6116683;23;20010;-85
2022/10/02 09:52:05;;;;;;;13.20;3.65;;;14.70;99.90;;;;;;6118273;23;20500;-85
2022/10/02 09:55:08;;;;;;;16.05;4.40;;;14.80;99.90;;;;;;6116660;23;20432;-84
2022/10/02 09:57:56;;;;;;;23.80;3.63;;;14.90;99.90;;;;;;6112787;23;20056;-85
2022/10/02 10:00:40;;;;;;;14.80;3.80;;;15.00;99.90;;;;;;6114441;23;20006;-83
2022/10/02 10:03:50;;;;;;;16.80;3.97;;;15.10;99.90;;;;;;6116044;23;20315;-86
2022/10/02 10:06:47;;;;;;;12.00;3.53;;;15.20;99.90;;;;;;6087583;23;20021;-82
2022/10/02 10:09:20;;;;;;;;;;;15.40;99.90;;;;;;6119218;23;20063;-85
2022/10/02 10:11:55;;;;;;;8.45;2.97;;;15.40;99.90;;;;;;6117520;23;19901;-85
2022/10/02 10:14:59;;;;;;;14.13;4.45;;;15.40;99.90;;;;;;6118847;23;20006;-86
2022/10/02 10:18:03;;;;;;;18.80;4.80;;;15.50;99.90;;;;;;6117882;23;20014;-87
2022/10/02 10:20:59;;;;;;;12.50;3.72;;;15.60;99.90;;;;;;6118544;23;20028;-86
2022/10/02 10:23:37;;;;;;;;;;;15.70;99.90;;;;;;6116740;23;20036;-85
2022/10/02 10:26:52;;;;;;;15.85;4.20;;;15.70;99.90;;;;;;6117100;23;19996;-88
2022/10/02 10:29:39;;;;;;;15.00;4.10;;;15.80;99.90;;;;;;6100282;23;20094;-87
2022/10/02 10:32:11;;;;;;;15.57;3.50;;;15.80;99.90;;;;;;6117536;23;20010;-85
2022/10/02 10:34:54;;;;;;;8.95;2.92;;;15.90;99.90;;;;;;6118832;23;20348;-88
2022/10/02 10:40:36;;;;;;;9.10;2.17;;;15.90;99.90;;;;;;6118849;23;20117;-84
2022/10/02 10:43:31;;;;;;;11.77;3.28;;;15.80;99.90;;;;;;6117810;23;20305;-84
2022/10/02 10:46:17;;;;;;;13.57;3.10;;;15.70;99.90;;;;;;6117113;23;20327;-85
2022/10/02 10:49:02;;;;;;;12.85;3.55;;;15.60;99.90;;;;;;6118322;23;20006;-85
2022/10/02 10:51:58;;;;;;;14.13;3.22;;;15.50;99.90;;;;;;6116506;23;20009;-86
2022/10/02 10:54:47;;;;;;;14.95;3.03;;;15.60;99.90;;;;;;6114726;23;20080;-84
2022/10/02 10:57:21;;;;;;;10.15;3.08;;;15.70;99.90;;;;;;6115926;23;20360;-85
2022/10/02 11:00:12;;;;;;;16.25;3.33;;;15.80;99.90;;;;;;6115837;23;20014;-87
2022/10/02 11:03:06;;;;;;;13.93;2.25;;;15.80;99.90;;;;;;6117575;23;20006;-84
2022/10/02 11:05:52;;;;;;;9.10;1.85;;;15.90;99.90;;;;;;6117658;23;20021;-85
2022/10/02 11:08:37;;;;;;;8.50;2.03;;;15.90;99.90;;;;;;6117468;23;20006;-85
2022/10/02 11:11:06;;;;;;;9.80;2.88;;;15.90;99.90;;;;;;6117372;23;20379;-85
2022/10/02 11:14:20;;;;;;;9.05;2.45;;;16.10;99.90;;;;;;6114682;23;20005;-83
2022/10/02 11:17:16;;;;;;;12.50;2.78;;;16.20;99.90;;;;;;6050864;23;20418;-87
2022/10/02 11:20:09;;;;;;;18.30;2.78;;;16.20;99.90;;;;;;6117174;22;20021;-85
2022/10/02 11:22:57;;;;;;;12.38;2.10;;;16.30;99.90;;;;;;6116857;23;20005;-83
2022/10/02 11:25:43;;;;;;;5.32;1.85;;;16.20;99.90;;;;;;6118186;23;20044;-83
2022/10/02 11:28:17;;;;;;;13.52;3.03;;;16.10;99.90;;;;;;6116641;23;20006;-82
2022/10/02 11:31:02;;;;;;;13.73;2.80;;;16.10;99.90;;;;;;6118168;23;20030;-85
2022/10/02 11:33:38;;;;;;;9.68;2.50;;;16.10;99.90;;;;;;6116005;23;20024;-84
2022/10/02 11:36:41;;;;;;;13.07;2.35;;;16.20;99.90;;;;;;6117524;23;20006;-85
2022/10/02 11:39:12;;;;;;;11.10;2.20;;;16.30;99.90;;;;;;6085463;23;20006;-85
2022/10/02 11:42:04;;;;;;;11.90;2.63;;;16.50;99.90;;;;;;6117165;23;20006;-84
2022/10/02 11:44:53;;;;;;;11.75;2.60;;;16.60;99.90;;;;;;6116004;23;20045;-84
2022/10/02 11:47:53;;;;;;;10.02;2.38;;;16.60;99.90;;;;;;6116830;23;20140;-86
2022/10/02 11:50:48;;;;;;;13.68;2.40;;;16.60;99.90;;;;;;6118176;23;20029;-86
2022/10/02 11:53:23;;;;;;;6.97;2.17;;;16.70;99.90;;;;;;6079814;23;20334;-83
2022/10/02 11:56:02;;;;;;;11.67;2.37;;;16.80;99.90;;;;;;6117914;23;20313;-83
2022/10/02 11:58:59;;;;;;;9.18;2.17;;;16.80;99.90;;;;;;6117573;23;20055;-84
2022/10/02 12:01:40;;;;;;;13.05;2.58;;;16.90;99.90;;;;;;6117750;23;20006;-84
2022/10/02 12:04:21;;;;;;;9.75;2.47;;;16.90;99.90;;;;;;6116678;23;20036;-85
2022/10/02 12:07:11;;;;;;;9.25;2.50;;;16.90;99.90;;;;;;6117424;23;20089;-83
2022/10/02 12:09:58;;;;;;;10.90;2.30;;;16.80;99.90;;;;;;6117856;23;20036;-83
2022/10/02 12:12:35;;;;;;;9.85;2.47;;;16.80;99.90;;;;;;6117054;23;20010;-84
2022/10/02 12:15:21;;;;;;;9.18;2.47;;;16.70;99.90;;;;;;6117334;23;20323;-83
2022/10/02 12:18:21;;;;;;;11.85;2.72;;;16.70;99.90;;;;;;6116203;23;20041;-84
2022/10/02 12:27:52;;;;;;;13.70;3.20;;;16.30;99.90;;;;;;6102696;23;20003;-84
2022/10/02 12:30:30;;;;;;;9.90;2.15;;;16.20;99.90;;;;;;6027377;23;20050;-87
2022/10/02 12:33:08;;;;;;;17.52;2.92;;;16.20;99.90;;;;;;6103674;23;20002;-84
2022/10/02 12:36:04;;;;;;;18.50;2.95;;;16.20;99.90;;;;;;6116048;23;20051;-84
2022/10/02 12:38:35;;;;;;;11.00;2.43;;;16.10;99.90;;;;;;6114341;23;20097;-85
2022/10/02 12:41:32;;;;;;;11.60;2.35;;;16.10;99.90;;;;;;6118046;23;20069;-84
2022/10/02 12:44:10;;;;;;;12.57;2.67;;;16.10;99.90;;;;;;6114177;23;20452;-84
2022/10/02 12:46:58;;;;;;;12.63;2.25;;;16.00;99.90;;;;;;6117414;23;20381;-85
2022/10/02 12:49:44;;;;;;;10.27;2.60;;;16.00;99.90;;;;;;6117740;23;20497;-84
2022/10/02 12:52:27;;;;;;;;;;;16.00;99.90;;;;;;6116537;23;20014;-84
2022/10/02 12:55:27;;;;;;;9.85;2.60;;;15.90;99.90;;;;;;6118900;23;19909;-84
2022/10/02 12:58:17;;;;;;;7.00;1.92;;;15.90;99.90;;;;;;6117804;23;20064;-85
2022/10/02 13:01:29;;;;;;;11.50;2.60;;;15.90;99.90;;;;;;6117969;23;20006;-84
2022/10/02 13:04:56;;;;;;;16.95;2.47;;;15.90;99.90;;;;;;6114093;23;20475;-84
2022/10/02 13:07:59;;;;;;;9.50;2.60;;;16.10;99.90;;;;;;6025802;23;20008;-84
2022/10/02 13:10:34;;;;;;;11.40;2.80;;;16.30;99.90;;;;;;6028373;23;20008;-84
2022/10/02 13:13:25;;;;;;;11.40;2.20;;;16.50;99.90;;;;;;6097975;23;20006;-84
2022/10/02 13:16:10;;;;;;;10.05;2.30;;;16.70;99.90;;;;;;6118125;23;20395;-84
2022/10/02 13:18:42;;;;;;;7.63;2.10;;;16.80;99.90;;;;;;6115619;22;20033;-84
2022/10/02 13:21:12;;;;;;;13.70;2.58;;;16.80;99.90;;;;;;6117139;23;20006;-84
2022/10/02 13:23:52;;;;;;;11.43;2.47;;;16.70;99.90;;;;;;6117274;23;20036;-84
2022/10/02 13:26:21;;;;;;;13.75;2.28;;;16.80;99.90;;;;;;6118155;23;20010;-85
2022/10/02 13:29:14;;;;;;;12.93;2.15;;;16.70;99.90;;;;;;6116853;23;20002;-84
2022/10/02 13:31:42;;;;;;;9.52;2.47;;;16.70;99.90;;;;;;6117095;23;20005;-84
2022/10/02 13:34:36;;;;;;;7.00;1.98;;;16.70;99.90;;;;;;6113791;23;20432;-84
2022/10/02 13:37:16;;;;;;;13.30;1.85;;;16.60;99.90;;;;;;6117651;23;20013;-86
2022/10/02 13:40:19;;;;;;;8.98;2.30;;;16.50;99.90;;;;;;6117253;23;20336;-83
2022/10/02 13:43:18;;;;;;;11.02;2.55;;;16.40;99.90;;;;;;6116202;23;20498;-84
2022/10/02 13:46:13;;;;;;;11.48;2.58;;;16.20;99.90;;;;;;6118505;23;20097;-84
2022/10/02 13:49:05;;;;;;;15.70;2.93;;;16.10;99.90;;;;;;6115358;23;20012;-83
2022/10/02 13:51:40;;;;;;;11.82;2.88;;;15.80;99.90;;;;;;6117502;23;20253;-83
2022/10/02 13:54:08;;;;;;;19.42;2.30;;;15.60;99.90;;;;;;6116942;23;20006;-85
2022/10/02 13:56:37;;;;;;;11.27;2.15;;;15.20;99.90;;;;;;6118145;23;20427;-83
2022/10/02 13:59:27;;;;;;;7.45;1.50;;;14.70;99.90;;;;;;6116028;23;20499;-84
2022/10/02 14:02:16;;;;;;;6.35;1.75;;;14.30;99.90;;;;;;6116759;23;20010;-82
2022/10/02 14:04:54;;;;;;;10.90;2.15;;;13.90;99.90;;;;;;6114953;23;20022;-85
2022/10/02 14:07:37;;;;;;;12.15;3.72;;;13.70;99.90;;;;;;6118590;23;20089;-84
2022/10/02 14:10:09;;;;;;;9.85;2.03;;;13.40;99.90;;;;;;6118380;23;20016;-85
2022/10/02 14:12:44;;;;;;;9.00;2.08;;;13.10;99.90;;;;;;6116440;23;20034;-83
2022/10/02 14:15:15;;;;;;;14.57;2.80;;;13.00;99.90;;;;;;6117237;23;20520;-87